Time;durP1;ratioP1;P1;durP2;ratioP2;P2;SDS_P1;SDS_P2;PMS_P1;PMS_P2;Temp;Humidity;BMP_temperature;BMP_pressure;BME280_temperature;BME280_humidity;BME280_pressure;Samples;Min_cycle;Max_cycle;Signal;HPM_P1;HPM_P2
2023/06/25 00:00:56;;;;;;;6.00;5.40;;;18.40;25.40;;;;;;5054112;28;20390;-82
2023/06/25 00:03:22;;;;;;;6.00;5.40;;;18.50;20.10;;;;;;5061007;28;20388;-82
2023/06/25 00:05:48;;;;;;;6.05;5.53;;;18.40;25.20;;;;;;5062540;28;20990;-82
2023/06/25 00:08:14;;;;;;;6.57;5.90;;;18.30;31.40;;;;;;5055002;28;20472;-82
2023/06/25 00:10:39;;;;;;;5.97;5.38;;;18.40;26.10;;;;;;5054458;28;20391;-82
2023/06/25 00:13:05;;;;;;;5.65;5.15;;;18.40;19.30;;;;;;5052863;28;20401;-82
2023/06/25 00:15:30;;;;;;;5.30;4.90;;;18.30;34.60;;;;;;5052388;28;20389;-82
2023/06/25 00:17:56;;;;;;;5.40;4.90;;;18.30;13.90;;;;;;5054647;28;20386;-82
2023/06/25 00:20:24;;;;;;;5.50;4.90;;;18.30;10.80;;;;;;5117673;22;20440;-83
2023/06/25 00:22:57;;;;;;;5.70;4.80;;;18.30;15.50;;;;;;5116064;28;20362;-83
2023/06/25 00:25:31;;;;;;;4.80;4.40;;;18.50;17.90;;;;;;5098985;28;20404;-82
2023/06/25 00:28:19;;;;;;;4.70;4.28;;;19.80;27.70;;;;;;5096949;28;20420;-84
2023/06/25 00:30:47;;;;;;;5.00;4.60;;;18.30;24.60;;;;;;5100429;28;20403;-83
2023/06/25 00:33:13;;;;;;;5.20;4.70;;;19.40;10.50;;;;;;5077936;28;20403;-85
2023/06/25 00:35:55;;;;;;;5.30;4.80;;;18.80;27.40;;;;;;5077236;28;20376;-83
2023/06/25 00:38:24;;;;;;;4.90;4.50;;;18.20;23.50;;;;;;5084422;28;20505;-85
2023/06/25 00:40:57;;;;;;;5.30;4.80;;;19.10;24.70;;;;;;5099096;28;20397;-84
2023/06/25 00:43:26;;;;;;;4.57;4.18;;;18.90;26.40;;;;;;5080171;28;20390;-84
2023/06/25 00:45:57;;;;;;;4.70;4.30;;;19.00;11.70;;;;;;5078940;28;20386;-84
2023/06/25 00:48:26;;;;;;;6.15;4.80;;;18.30;18.50;;;;;;5080520;28;20456;-84
2023/06/25 00:51:01;;;;;;;5.03;4.63;;;18.20;37.30;;;;;;5076913;28;20758;-84
2023/06/25 00:53:34;;;;;;;5.47;4.97;;;18.20;20.00;;;;;;5076307;28;20462;-84
2023/06/25 00:55:59;;;;;;;5.40;4.90;;;18.20;37.80;;;;;;5038155;28;20408;-84
2023/06/25 00:58:32;;;;;;;7.40;4.90;;;18.20;22.30;;;;;;5046109;28;20393;-84
2023/06/25 01:00:59;;;;;;;6.03;4.97;;;18.40;11.80;;;;;;5048355;28;20471;-84
2023/06/25 01:03:40;;;;;;;5.30;4.90;;;18.90;15.40;;;;;;5056598;28;20728;-84
2023/06/25 01:06:22;;;;;;;5.47;4.97;;;18.30;44.40;;;;;;5055693;28;20377;-84
2023/06/25 01:08:50;;;;;;;5.40;4.90;;;18.40;21.90;;;;;;5037776;28;20913;-84
2023/06/25 01:11:18;;;;;;;5.10;4.70;;;18.80;29.70;;;;;;5059389;28;20387;-85
2023/06/25 01:13:46;;;;;;;5.18;4.70;;;19.60;23.10;;;;;;5058627;28;20402;-84
2023/06/25 01:16:15;;;;;;;5.20;4.80;;;18.70;19.30;;;;;;5057368;28;20380;-84
2023/06/25 01:18:48;;;;;;;5.00;4.60;;;19.60;36.00;;;;;;5076362;28;20472;-84
2023/06/25 01:21:16;;;;;;;4.70;4.30;;;18.30;25.70;;;;;;5095389;28;20812;-84
2023/06/25 01:23:42;;;;;;;5.28;4.78;;;19.00;13.20;;;;;;5069140;28;20407;-84
2023/06/25 01:26:11;;;;;;;4.60;4.20;;;18.40;14.30;;;;;;5056648;28;20368;-84
2023/06/25 01:28:38;;;;;;;5.97;4.93;;;18.20;15.10;;;;;;5057294;28;20379;-84
2023/06/25 01:31:07;;;;;;;5.00;4.32;;;18.10;21.50;;;;;;5084386;28;20394;-85
2023/06/25 01:33:33;;;;;;;5.30;4.90;;;18.00;24.10;;;;;;5076818;28;20999;-84
2023/06/25 01:35:58;;;;;;;4.60;4.20;;;18.10;46.10;;;;;;5076439;28;20410;-84
2023/06/25 01:38:24;;;;;;;5.30;4.80;;;18.00;15.20;;;;;;5095258;28;20378;-84
2023/06/25 01:40:50;;;;;;;4.70;4.30;;;18.10;13.30;;;;;;5070003;28;20375;-84
2023/06/25 01:43:15;;;;;;;4.90;4.50;;;18.00;36.40;;;;;;5075029;28;20451;-84
2023/06/25 01:45:41;;;;;;;5.38;4.88;;;17.90;14.80;;;;;;5074575;28;20701;-84
2023/06/25 01:48:07;;;;;;;6.20;5.60;;;18.00;23.80;;;;;;5074308;28;20923;-84
2023/06/25 01:50:33;;;;;;;5.13;4.35;;;18.00;25.30;;;;;;5063849;28;20394;-84
2023/06/25 01:52:58;;;;;;;5.00;4.60;;;18.00;23.60;;;;;;5076971;28;20398;-85
2023/06/25 01:55:24;;;;;;;4.90;4.50;;;18.00;22.60;;;;;;5076625;28;20725;-84
2023/06/25 01:57:49;;;;;;;4.30;3.90;;;18.00;26.70;;;;;;5094752;28;20378;-83
2023/06/25 02:00:15;;;;;;;4.70;4.30;;;18.10;16.10;;;;;;5072115;28;21015;-85
2023/06/25 02:02:41;;;;;;;5.05;4.65;;;18.00;17.40;;;;;;5056352;28;20720;-84
2023/06/25 02:05:07;;;;;;;5.05;4.55;;;17.90;40.90;;;;;;5056618;28;20383;-85
2023/06/25 02:07:33;;;;;;;5.85;4.15;;;17.70;41.90;;;;;;5068971;28;20402;-84
2023/06/25 02:09:59;;;;;;;5.65;5.00;;;17.90;29.10;;;;;;5076381;28;20382;-85
2023/06/25 02:12:24;;;;;;;5.00;4.60;;;17.90;35.70;;;;;;5063514;28;20932;-84
2023/06/25 02:14:50;;;;;;;4.77;4.37;;;18.30;13.30;;;;;;5056544;28;20941;-84
2023/06/25 02:17:15;;;;;;;4.80;4.40;;;18.00;26.10;;;;;;5065419;28;20385;-84
2023/06/25 02:19:41;;;;;;;5.37;4.17;;;17.90;26.00;;;;;;5079888;28;20410;-84
2023/06/25 02:22:06;;;;;;;4.95;4.53;;;17.90;22.20;;;;;;5056430;28;20388;-84
2023/06/25 02:24:32;;;;;;;5.17;4.47;;;17.80;23.30;;;;;;5073782;28;20387;-84
2023/06/25 02:26:57;;;;;;;5.17;4.60;;;17.80;33.20;;;;;;5055404;28;20750;-84
2023/06/25 02:29:23;;;;;;;5.18;4.78;;;17.70;29.80;;;;;;5066024;28;20409;-84
2023/06/25 02:31:48;;;;;;;5.50;5.00;;;17.60;51.60;;;;;;5094331;28;20413;-85
2023/06/25 02:34:16;;;;;;;5.20;4.70;;;17.50;51.10;;;;;;5094930;28;20374;-84
2023/06/25 02:36:42;;;;;;;4.78;4.38;;;17.50;39.80;;;;;;5100608;28;20382;-83
2023/06/25 02:39:08;;;;;;;4.68;4.28;;;17.50;42.50;;;;;;5080018;28;20521;-84
2023/06/25 02:41:33;;;;;;;4.40;4.07;;;17.50;43.20;;;;;;5056158;28;20422;-83
2023/06/25 02:43:59;;;;;;;4.67;4.27;;;17.50;45.70;;;;;;5057528;28;20435;-83
2023/06/25 02:46:25;;;;;;;4.50;4.10;;;17.50;49.10;;;;;;5073137;28;20376;-83
2023/06/25 02:48:50;;;;;;;4.77;4.37;;;17.40;38.00;;;;;;5062165;28;20475;-84
2023/06/25 02:51:16;;;;;;;4.43;4.03;;;17.50;40.70;;;;;;5055663;28;20429;-84
2023/06/25 02:53:41;;;;;;;6.13;5.13;;;17.40;46.10;;;;;;5055654;28;20453;-83
2023/06/25 02:56:07;;;;;;;5.20;4.80;;;17.50;69.40;;;;;;5072369;28;20636;-83
2023/06/25 02:58:32;;;;;;;5.28;4.78;;;17.40;78.10;;;;;;5062708;28;20394;-84
2023/06/25 03:00:58;;;;;;;5.10;4.60;;;17.40;57.30;;;;;;5094532;28;20382;-84
2023/06/25 03:03:23;;;;;;;5.70;4.60;;;17.30;70.10;;;;;;5093915;28;20427;-84
2023/06/25 03:05:50;;;;;;;4.87;4.47;;;17.40;83.10;;;;;;5061975;28;20521;-84
2023/06/25 03:08:15;;;;;;;5.15;4.65;;;17.30;99.90;;;;;;5057424;28;20470;-84
2023/06/25 03:10:41;;;;;;;5.27;4.73;;;17.30;97.90;;;;;;5077463;28;20407;-84
2023/06/25 03:13:06;;;;;;;5.23;4.73;;;17.10;85.90;;;;;;5059211;28;20580;-84
2023/06/25 03:15:32;;;;;;;5.00;4.50;;;17.10;88.20;;;;;;5084661;28;20394;-83
2023/06/25 03:17:57;;;;;;;5.43;4.93;;;17.00;99.90;;;;;;5097372;28;20400;-84
2023/06/25 03:20:23;;;;;;;5.00;4.50;;;16.90;98.40;;;;;;5079281;28;20397;-84
2023/06/25 03:22:49;;;;;;;5.10;4.60;;;16.80;99.90;;;;;;5097685;28;20409;-84
2023/06/25 03:25:15;;;;;;;5.10;4.70;;;16.80;99.90;;;;;;5074643;28;20406;-84
2023/06/25 03:27:41;;;;;;;5.17;4.77;;;16.70;99.90;;;;;;5080029;28;20775;-83
2023/06/25 03:30:07;;;;;;;5.30;4.80;;;16.70;99.90;;;;;;5078455;28;20397;-84
2023/06/25 03:32:33;;;;;;;5.32;4.82;;;16.70;99.90;;;;;;5096626;28;20405;-84
2023/06/25 03:34:59;;;;;;;6.07;5.40;;;16.70;99.90;;;;;;5078799;28;20816;-84
2023/06/25 03:37:25;;;;;;;6.13;4.65;;;16.70;99.90;;;;;;5096958;28;20385;-84
2023/06/25 03:39:50;;;;;;;4.93;4.50;;;16.50;99.90;;;;;;5057398;28;20389;-83
2023/06/25 03:42:16;;;;;;;5.13;4.63;;;16.50;99.90;;;;;;5039102;28;20931;-84
2023/06/25 03:44:49;;;;;;;5.63;4.60;;;16.60;99.90;;;;;;5039718;28;20400;-84
2023/06/25 03:47:14;;;;;;;4.75;4.25;;;16.60;99.90;;;;;;5073221;28;20400;-84
2023/06/25 03:49:40;;;;;;;5.30;4.80;;;16.50;99.90;;;;;;5097383;28;20378;-84
2023/06/25 03:52:06;;;;;;;5.10;4.70;;;16.40;99.90;;;;;;5079566;28;20394;-84
2023/06/25 03:54:31;;;;;;;5.70;4.80;;;16.40;99.90;;;;;;5079404;28;20467;-84
2023/06/25 03:56:57;;;;;;;5.03;4.53;;;16.40;99.90;;;;;;5064370;28;20917;-84
2023/06/25 03:59:22;;;;;;;5.27;4.70;;;16.40;99.90;;;;;;5094610;28;20779;-84
2023/06/25 04:01:48;;;;;;;6.50;5.20;;;16.30;99.90;;;;;;5079257;28;20471;-84
2023/06/25 04:04:13;;;;;;;5.05;4.55;;;16.50;99.90;;;;;;5078461;28;20386;-84
2023/06/25 04:06:39;;;;;;;5.20;4.70;;;16.40;99.90;;;;;;5078662;28;20378;-84
2023/06/25 04:09:05;;;;;;;5.40;4.90;;;16.30;99.90;;;;;;5064648;28;20827;-84
2023/06/25 04:11:30;;;;;;;5.00;4.60;;;16.40;99.90;;;;;;5076922;28;20882;-84
2023/06/25 04:13:56;;;;;;;6.07;4.77;;;16.50;99.90;;;;;;5076440;28;20409;-84
2023/06/25 04:16:21;;;;;;;5.50;5.00;;;16.50;99.90;;;;;;5076085;28;20464;-84
2023/06/25 04:18:47;;;;;;;4.68;4.28;;;16.40;99.90;;;;;;5057991;28;20766;-84
2023/06/25 04:21:13;;;;;;;6.80;5.10;;;16.40;99.90;;;;;;5057987;28;20388;-84
2023/06/25 04:23:39;;;;;;;5.37;4.90;;;16.40;99.90;;;;;;5076386;28;20387;-84
2023/06/25 04:26:04;;;;;;;5.50;5.00;;;16.30;99.90;;;;;;5072751;28;20401;-84
2023/06/25 04:28:30;;;;;;;5.90;5.30;;;16.30;99.90;;;;;;5063207;28;20762;-84
2023/06/25 04:30:55;;;;;;;4.93;4.53;;;16.40;99.90;;;;;;5076134;28;20388;-84
2023/06/25 04:33:21;;;;;;;5.00;4.50;;;16.50;99.90;;;;;;5075641;28;20494;-84
2023/06/25 04:35:47;;;;;;;5.50;5.03;;;16.50;99.90;;;;;;5057271;28;20403;-84
2023/06/25 04:38:13;;;;;;;5.18;4.68;;;16.60;99.90;;;;;;5086615;28;20394;-84
2023/06/25 04:40:38;;;;;;;5.00;4.60;;;16.60;99.90;;;;;;5071536;22;20468;-84
2023/06/25 04:43:04;;;;;;;5.70;5.20;;;16.60;99.90;;;;;;5065384;28;20384;-84
2023/06/25 04:45:29;;;;;;;5.30;4.90;;;16.60;99.90;;;;;;5075102;28;20383;-84
2023/06/25 04:47:55;;;;;;;5.33;4.90;;;16.70;99.90;;;;;;5073801;28;20392;-83
2023/06/25 04:50:20;;;;;;;5.70;5.15;;;16.80;99.90;;;;;;5057734;28;20798;-83
2023/06/25 04:52:46;;;;;;;4.80;4.40;;;16.80;99.90;;;;;;5053227;28;20949;-84
2023/06/25 04:55:12;;;;;;;5.37;4.97;;;16.80;99.90;;;;;;5054363;28;20425;-84
2023/06/25 04:57:38;;;;;;;5.85;5.35;;;16.80;99.90;;;;;;5054289;28;20385;-83
2023/06/25 05:00:04;;;;;;;5.22;4.72;;;16.90;99.90;;;;;;5052887;28;20472;-84
2023/06/25 05:02:30;;;;;;;5.20;4.70;;;16.90;99.90;;;;;;5054848;28;20447;-84
2023/06/25 05:04:55;;;;;;;5.10;4.30;;;16.90;99.90;;;;;;5054250;28;20773;-84
2023/06/25 05:07:21;;;;;;;5.00;4.50;;;17.00;99.90;;;;;;5051971;28;20417;-84
2023/06/25 05:09:47;;;;;;;5.15;4.65;;;17.00;99.90;;;;;;5054423;28;20425;-84
2023/06/25 05:12:12;;;;;;;5.00;4.60;;;17.10;99.90;;;;;;5041900;28;20407;-83
2023/06/25 05:14:38;;;;;;;5.50;4.70;;;17.20;99.90;;;;;;5041536;28;20455;-84
2023/06/25 05:17:04;;;;;;;5.00;4.50;;;17.30;99.90;;;;;;5053168;28;20413;-84
2023/06/25 05:19:29;;;;;;;5.00;4.60;;;17.30;99.90;;;;;;5053020;28;20414;-83
2023/06/25 05:21:55;;;;;;;4.93;4.53;;;17.40;99.90;;;;;;5052747;28;20834;-84
2023/06/25 05:24:20;;;;;;;4.70;4.30;;;17.50;99.90;;;;;;5053169;28;20413;-84
2023/06/25 05:26:46;;;;;;;5.03;4.53;;;17.60;99.90;;;;;;5052196;28;20815;-84
2023/06/25 05:29:11;;;;;;;4.80;4.40;;;17.50;99.90;;;;;;5054195;28;20737;-83
2023/06/25 05:31:37;;;;;;;4.70;4.30;;;17.60;99.90;;;;;;5053838;28;20398;-84
2023/06/25 05:34:02;;;;;;;4.47;4.07;;;17.60;99.90;;;;;;5052704;28;20460;-85
2023/06/25 05:36:29;;;;;;;5.60;5.10;;;17.70;99.90;;;;;;5052082;28;20392;-84
2023/06/25 05:38:54;;;;;;;5.10;4.70;;;17.70;99.90;;;;;;5054001;28;20439;-83
2023/06/25 05:41:20;;;;;;;5.10;4.70;;;17.80;99.90;;;;;;5054301;28;20389;-84
2023/06/25 05:43:45;;;;;;;4.70;4.30;;;17.80;99.90;;;;;;5054489;28;20389;-84
2023/06/25 05:46:13;;;;;;;4.70;4.30;;;17.90;99.90;;;;;;5053852;28;20399;-84
2023/06/25 05:48:42;;;;;;;4.88;4.47;;;18.20;99.90;;;;;;5052989;28;20389;-84
2023/06/25 05:51:07;;;;;;;5.55;5.05;;;18.20;99.90;;;;;;5054411;28;20386;-84
2023/06/25 05:53:43;;;;;;;4.80;4.40;;;18.30;99.90;;;;;;5052519;28;20459;-84
2023/06/25 05:56:11;;;;;;;4.90;4.50;;;18.40;99.90;;;;;;5053938;28;20389;-84
2023/06/25 05:58:37;;;;;;;4.78;4.30;;;18.40;99.90;;;;;;5061372;28;20398;-82
2023/06/25 06:01:06;;;;;;;4.87;4.47;;;18.60;99.90;;;;;;5075820;28;20410;-83
2023/06/25 06:03:31;;;;;;;5.00;4.50;;;18.70;93.70;;;;;;5073170;28;20398;-82
2023/06/25 06:05:57;;;;;;;5.28;4.57;;;18.80;99.90;;;;;;5073943;28;20396;-81
2023/06/25 06:08:24;;;;;;;5.03;4.60;;;18.80;96.40;;;;;;5071958;28;20373;-83
2023/06/25 06:13:25;;;;;;;5.70;4.53;;;19.20;93.60;;;;;;5082353;22;20435;-83
2023/06/25 06:15:55;;;;;;;4.93;4.53;;;20.20;39.80;;;;;;5061846;28;20384;-83
2023/06/25 06:18:24;;;;;;;4.80;4.40;;;21.20;4.50;;;;;;5062707;28;20383;-83
2023/06/25 06:20:50;;;;;;;4.70;4.30;;;19.50;3.80;;;;;;5079150;28;20380;-85
2023/06/25 06:23:16;;;;;;;5.50;4.40;;;19.50;9.00;;;;;;5060447;28;20390;-85
2023/06/25 06:26:06;;;;;;;5.10;4.68;;;20.20;1.00;;;;;;5080536;28;20380;-85
2023/06/25 06:28:35;;;;;;;5.03;4.63;;;20.60;1.00;;;;;;5098612;28;20384;-85
2023/06/25 06:31:03;;;;;;;5.37;4.87;;;20.30;1.00;;;;;;5099343;28;20388;-84
2023/06/25 06:33:31;;;;;;;5.13;4.73;;;21.60;1.00;;;;;;5098497;28;20820;-84
2023/06/25 06:36:09;;;;;;;4.80;4.40;;;20.60;1.00;;;;;;5095177;28;21048;-85
2023/06/25 06:39:10;;;;;;;5.50;5.00;;;20.80;1.00;;;;;;5078592;28;20386;-84
2023/06/25 06:41:39;;;;;;;4.90;4.50;;;20.60;1.00;;;;;;5079475;28;20416;-84
2023/06/25 06:44:33;;;;;;;5.50;5.00;;;21.20;1.00;;;;;;5076683;28;20420;-85
2023/06/25 06:47:04;;;;;;;5.82;5.32;;;22.10;1.00;;;;;;5097120;28;20386;-85
2023/06/25 06:49:29;;;;;;;4.93;4.47;;;21.30;1.00;;;;;;5075605;28;20488;-84
2023/06/25 06:52:03;;;;;;;5.37;4.73;;;21.30;1.00;;;;;;5078595;28;20433;-83
2023/06/25 06:54:32;;;;;;;5.65;5.10;;;21.20;1.00;;;;;;5078112;28;20390;-84
2023/06/25 06:57:00;;;;;;;5.50;4.90;;;21.70;1.00;;;;;;5092805;28;20388;-83
2023/06/25 06:59:44;;;;;;;4.97;4.57;;;21.30;1.00;;;;;;5099108;28;20467;-84
2023/06/25 07:02:09;;;;;;;5.50;5.07;;;22.10;1.00;;;;;;5121802;28;20885;-83
2023/06/25 07:04:35;;;;;;;5.73;5.20;;;21.40;1.00;;;;;;5110566;28;20393;-83
2023/06/25 07:07:12;;;;;;;5.80;5.30;;;22.10;1.00;;;;;;5095526;28;20389;-84
2023/06/25 07:09:50;;;;;;;6.65;5.95;;;21.40;1.00;;;;;;5077155;28;20382;-84
2023/06/25 07:12:15;;;;;;;6.00;5.50;;;21.30;1.00;;;;;;5095855;28;20890;-83
2023/06/25 07:14:41;;;;;;;5.80;5.30;;;20.90;1.00;;;;;;5078084;28;20477;-84
2023/06/25 07:17:21;;;;;;;7.47;5.60;;;23.00;1.00;;;;;;5076877;28;20899;-84
2023/06/25 07:19:50;;;;;;;5.90;5.40;;;21.60;49.50;;;;;;5096001;28;20394;-83
2023/06/25 07:22:16;;;;;;;5.70;5.20;;;21.40;99.90;;;;;;5098200;28;20392;-84
2023/06/25 07:24:44;;;;;;;5.40;4.90;;;21.50;99.90;;;;;;5119022;28;20384;-83
2023/06/25 07:27:10;;;;;;;5.30;4.80;;;21.40;99.90;;;;;;5096883;28;20396;-83
2023/06/25 07:29:35;;;;;;;5.70;5.20;;;22.20;99.90;;;;;;5098131;28;20376;-83
2023/06/25 07:32:01;;;;;;;5.70;5.20;;;21.60;99.90;;;;;;5099563;28;20405;-83
2023/06/25 07:34:37;;;;;;;5.97;4.90;;;22.00;99.90;;;;;;5095346;28;20394;-84
2023/06/25 07:37:06;;;;;;;5.50;5.00;;;21.90;99.90;;;;;;5107822;28;20476;-83
2023/06/25 07:39:33;;;;;;;5.40;4.70;;;21.90;99.90;;;;;;5098240;28;20390;-82
2023/06/25 07:42:07;;;;;;;5.45;4.95;;;21.90;99.90;;;;;;5099707;28;20407;-84
2023/06/25 07:44:33;;;;;;;5.57;5.10;;;22.00;99.90;;;;;;5117568;28;20380;-82
2023/06/25 07:47:04;;;;;;;5.38;4.88;;;22.10;99.90;;;;;;5086773;28;20412;-86
2023/06/25 07:49:30;;;;;;;5.05;4.47;;;22.20;99.90;;;;;;5077549;28;20397;-83
2023/06/25 07:52:03;;;;;;;6.22;5.63;;;23.30;99.90;;;;;;5076403;28;20402;-84
2023/06/25 07:54:52;;;;;;;5.82;5.28;;;22.30;99.90;;;;;;5059186;28;20401;-84
2023/06/25 07:57:20;;;;;;;5.30;4.90;;;22.20;99.90;;;;;;4994461;28;20393;-83
2023/06/25 07:59:55;;;;;;;5.78;5.28;;;22.70;99.90;;;;;;5089658;28;20738;-85
2023/06/25 08:05:43;;;;;;;5.70;5.20;;;22.50;99.90;;;;;;5115496;28;20865;-85
2023/06/25 08:08:15;;;;;;;5.40;4.90;;;22.70;99.90;;;;;;5116356;28;20445;-84
2023/06/25 08:11:22;;;;;;;;;;;;;;;;;;;;;
2023/06/25 08:13:48;;;;;;;5.20;4.80;;;22.60;99.90;;;;;;5079304;28;20491;-85
2023/06/25 08:16:14;;;;;;;5.38;4.88;;;23.20;99.90;;;;;;5081412;28;20414;-85
2023/06/25 08:18:42;;;;;;;5.50;5.00;;;22.90;99.90;;;;;;5086480;28;20447;-83
2023/06/25 08:21:17;;;;;;;5.40;4.90;;;23.70;99.90;;;;;;5136550;28;20360;-84
2023/06/25 08:24:09;;;;;;;;;;;;;;;;;;;;;
2023/06/25 08:26:58;;;;;;;4.47;4.18;;;22.90;99.90;;;;;;5095169;28;20441;-82
2023/06/25 08:29:35;;;;;;;5.60;5.10;;;23.80;99.90;;;;;;5095905;28;20414;-83
2023/06/25 08:32:01;;;;;;;5.63;5.10;;;23.00;99.90;;;;;;5090689;28;20404;-83
2023/06/25 08:34:27;;;;;;;5.40;5.00;;;23.00;99.90;;;;;;5136992;28;20387;-83
2023/06/25 08:36:55;;;;;;;5.20;4.80;;;23.80;99.90;;;;;;5118149;28;20702;-83
2023/06/25 08:39:29;;;;;;;5.82;5.40;;;23.10;99.90;;;;;;5136993;28;20408;-82
2023/06/25 08:41:55;;;;;;;4.97;4.57;;;23.20;99.90;;;;;;5118201;28;20377;-83
2023/06/25 08:44:59;;;;;;;5.07;4.68;;;23.30;99.90;;;;;;5105131;28;20376;-84
2023/06/25 08:47:35;;;;;;;5.82;5.32;;;23.30;99.90;;;;;;5099505;28;20416;-83
2023/06/25 08:50:11;;;;;;;5.30;4.80;;;23.90;99.90;;;;;;5081110;28;20410;-84
2023/06/25 08:52:40;;;;;;;5.10;4.70;;;23.70;99.90;;;;;;5115726;28;20617;-84
2023/06/25 08:55:12;;;;;;;5.25;4.85;;;23.70;99.90;;;;;;5121648;28;20522;-84
2023/06/25 08:57:38;;;;;;;6.20;5.07;;;23.50;99.90;;;;;;5102414;28;20384;-85
2023/06/25 09:00:08;;;;;;;5.18;4.68;;;23.60;99.90;;;;;;5107550;28;20441;-85
2023/06/25 09:02:35;;;;;;;6.20;4.82;;;23.70;99.90;;;;;;5110423;28;20787;-85
2023/06/25 09:05:10;;;;;;;4.93;4.53;;;23.90;99.90;;;;;;5100285;28;20378;-84
2023/06/25 09:07:43;;;;;;;5.18;4.68;;;24.00;99.90;;;;;;5076608;28;20384;-83
2023/06/25 09:10:12;;;;;;;5.10;4.70;;;23.90;99.90;;;;;;5076961;28;20475;-85
2023/06/25 09:12:55;;;;;;;4.80;4.40;;;25.40;99.90;;;;;;5096193;28;20421;-84
2023/06/25 09:15:43;;;;;;;5.00;4.53;;;24.40;99.90;;;;;;5098333;28;20412;-85
2023/06/25 09:18:49;;;;;;;;;;;;;;;;;;;;;
2023/06/25 09:21:15;;;;;;;5.07;4.57;;;24.40;99.90;;;;;;5089121;28;20480;-83
2023/06/25 09:23:56;;;;;;;5.30;4.82;;;24.60;99.90;;;;;;5101536;28;20799;-82
2023/06/25 09:26:22;;;;;;;5.40;4.90;;;24.40;99.90;;;;;;5118495;28;20436;-83
2023/06/25 09:28:51;;;;;;;4.60;4.20;;;24.70;99.90;;;;;;5118097;28;20389;-84
2023/06/25 09:31:18;;;;;;;4.80;4.30;;;24.90;99.90;;;;;;5087831;28;20385;-83
2023/06/25 09:33:53;;;;;;;4.90;4.50;;;24.80;99.90;;;;;;5083126;28;20482;-84
2023/06/25 09:36:32;;;;;;;5.30;4.30;;;24.70;99.90;;;;;;5087805;28;20471;-84
2023/06/25 09:38:57;;;;;;;5.05;4.65;;;25.10;99.90;;;;;;5099806;28;20379;-85
2023/06/25 09:41:27;;;;;;;4.83;4.13;;;25.10;99.90;;;;;;5102796;28;20392;-84
2023/06/25 09:43:56;;;;;;;4.93;4.40;;;25.10;50.00;;;;;;5120622;28;20390;-85
2023/06/25 09:46:22;;;;;;;6.30;5.00;;;25.00;78.00;;;;;;5111996;28;20386;-85
2023/06/25 09:48:56;;;;;;;4.60;4.20;;;25.00;34.10;;;;;;5102755;28;20920;-85
2023/06/25 09:51:28;;;;;;;4.95;4.45;;;25.10;1.00;;;;;;5116682;28;20378;-86
2023/06/25 09:54:02;;;;;;;5.28;4.78;;;25.30;1.00;;;;;;5120197;28;20400;-85
2023/06/25 09:56:28;;;;;;;4.88;4.38;;;25.70;1.00;;;;;;5100871;28;20376;-85
2023/06/25 09:58:56;;;;;;;5.40;4.55;;;25.30;1.00;;;;;;5080600;28;20390;-85
2023/06/25 10:01:22;;;;;;;5.00;4.53;;;25.30;1.00;;;;;;5094983;28;20425;-86
2023/06/25 10:03:48;;;;;;;4.82;4.43;;;25.60;40.80;;;;;;5099999;28;20389;-84
2023/06/25 10:06:16;;;;;;;4.80;4.40;;;25.70;1.00;;;;;;5082929;28;20386;-85
2023/06/25 10:08:51;;;;;;;4.85;4.45;;;25.80;8.60;;;;;;5079198;28;20393;-85
2023/06/25 10:11:26;;;;;;;5.07;4.67;;;25.90;1.00;;;;;;5107679;28;20398;-85
2023/06/25 10:13:52;;;;;;;5.68;4.60;;;25.90;1.00;;;;;;5087081;28;20878;-85
2023/06/25 10:17:24;;;;;;;;;;;;;;;;;;;;;
2023/06/25 10:27:08;;;;;;;4.50;4.10;;;26.90;1.00;;;;;;5024471;28;20408;-85
2023/06/25 10:30:18;;;;;;;5.05;4.60;;;26.80;1.00;;;;;;5000035;28;20423;-86
2023/06/25 10:32:50;;;;;;;4.65;4.25;;;26.70;1.00;;;;;;4969809;28;20432;-85
2023/06/25 10:35:21;;;;;;;4.47;4.07;;;26.70;1.00;;;;;;5019500;28;20389;-85
2023/06/25 10:37:47;;;;;;;4.90;4.50;;;26.60;1.00;;;;;;5058962;28;20438;-86
2023/06/25 10:40:13;;;;;;;4.60;4.20;;;26.70;1.00;;;;;;5101948;28;20373;-84
2023/06/25 10:42:38;;;;;;;4.57;4.18;;;26.80;1.00;;;;;;5098543;28;20400;-84
2023/06/25 10:45:05;;;;;;;4.80;4.18;;;26.70;1.00;;;;;;5100712;28;20431;-85
2023/06/25 10:47:30;;;;;;;5.60;4.53;;;26.90;1.00;;;;;;5088959;28;20390;-85
2023/06/25 10:50:38;;;;;;;4.60;4.20;;;26.90;1.00;;;;;;5099922;28;20385;-85
2023/06/25 10:53:31;;;;;;;4.78;4.38;;;26.40;1.00;;;;;;5083482;28;20381;-86
2023/06/25 10:56:11;;;;;;;4.82;4.43;;;27.10;1.00;;;;;;5096551;28;20879;-86
2023/06/25 10:58:44;;;;;;;5.03;4.38;;;27.60;1.00;;;;;;5079972;28;20397;-85
2023/06/25 11:04:58;;;;;;;4.20;3.90;;;27.50;1.00;;;;;;4992406;28;20445;-85
2023/06/25 11:07:25;;;;;;;4.88;4.20;;;27.10;1.00;;;;;;5100152;28;20930;-84
2023/06/25 11:10:18;;;;;;;4.20;3.80;;;27.40;1.00;;;;;;5103889;28;20454;-85
2023/06/25 11:12:43;;;;;;;4.45;3.75;;;27.70;1.00;;;;;;5089284;28;20390;-86
2023/06/25 11:15:20;;;;;;;4.20;3.90;;;27.40;1.00;;;;;;5113609;28;20972;-85
2023/06/25 11:17:56;;;;;;;4.60;4.20;;;27.60;1.00;;;;;;5111140;28;20762;-85
2023/06/25 11:20:25;;;;;;;4.63;4.20;;;27.90;1.00;;;;;;5115492;28;20406;-85
2023/06/25 11:22:55;;;;;;;5.90;4.40;;;27.80;1.00;;;;;;5114212;28;20399;-85
2023/06/25 11:25:21;;;;;;;4.10;3.80;;;27.90;1.00;;;;;;5117491;28;20397;-86
2023/06/25 11:27:50;;;;;;;4.60;4.10;;;28.30;1.00;;;;;;5133178;28;20372;-85
2023/06/25 11:30:18;;;;;;;4.40;4.00;;;28.50;1.00;;;;;;5121747;28;20384;-87
2023/06/25 11:32:43;;;;;;;4.40;4.00;;;28.70;1.00;;;;;;5134695;27;20486;-85
2023/06/25 11:35:11;;;;;;;4.57;4.18;;;28.70;1.00;;;;;;5113876;28;20451;-84
2023/06/25 11:37:47;;;;;;;4.60;4.20;;;29.10;1.00;;;;;;5104082;28;20378;-87
2023/06/25 11:40:22;;;;;;;4.40;4.00;;;29.30;1.00;;;;;;5093539;28;20400;-85
2023/06/25 11:42:48;;;;;;;4.75;4.25;;;29.70;1.00;;;;;;5127714;28;20408;-85
2023/06/25 11:45:14;;;;;;;4.30;3.90;;;30.70;1.00;;;;;;5124348;28;20823;-86
2023/06/25 11:47:45;;;;;;;4.20;3.80;;;31.20;1.00;;;;;;5106036;28;20375;-85
2023/06/25 11:50:11;;;;;;;4.10;3.80;;;31.90;1.00;;;;;;5113263;28;20389;-85
2023/06/25 11:52:37;;;;;;;4.10;3.80;;;32.50;1.00;;;;;;5079145;28;20386;-85
2023/06/25 11:55:05;;;;;;;4.03;3.72;;;33.00;1.00;;;;;;5097590;28;20374;-86
2023/06/25 11:57:31;;;;;;;3.70;3.40;;;33.00;1.00;;;;;;5077303;28;20400;-87
2023/06/25 11:59:56;;;;;;;4.00;3.70;;;33.20;1.00;;;;;;5083666;28;20550;-85
2023/06/25 12:02:22;;;;;;;5.17;4.20;;;32.40;1.00;;;;;;5098324;28;20403;-85
2023/06/25 12:04:47;;;;;;;4.07;3.77;;;32.40;1.00;;;;;;5097938;28;20455;-86
2023/06/25 12:07:13;;;;;;;4.00;3.70;;;32.50;1.00;;;;;;5099224;28;20377;-85
2023/06/25 12:09:39;;;;;;;4.22;3.88;;;32.50;1.00;;;;;;5096168;28;20416;-86
2023/06/25 12:12:05;;;;;;;4.20;3.90;;;32.40;1.00;;;;;;5076989;28;20402;-87
2023/06/25 12:14:31;;;;;;;4.70;4.30;;;32.10;1.00;;;;;;5078266;28;20385;-86
2023/06/25 12:16:56;;;;;;;4.50;4.10;;;32.10;1.00;;;;;;5085873;28;20379;-87
2023/06/25 12:19:27;;;;;;;4.20;3.80;;;32.30;1.00;;;;;;5102358;28;20725;-86
2023/06/25 12:22:19;;;;;;;4.20;3.90;;;31.90;1.00;;;;;;5085723;28;20382;-86
2023/06/25 12:28:25;;;;;;;4.00;3.70;;;32.30;1.00;;;;;;5010419;28;20385;-83
2023/06/25 12:31:01;;;;;;;4.33;3.93;;;32.40;1.00;;;;;;5003964;28;20782;-86
2023/06/25 12:33:29;;;;;;;3.90;3.47;;;33.20;1.00;;;;;;4984960;28;20382;-86
2023/06/25 12:36:23;;;;;;;4.80;4.40;;;32.80;1.00;;;;;;4977798;28;20445;-87
2023/06/25 12:39:04;;;;;;;;;;;;;;;;;;;;;
2023/06/25 12:41:30;;;;;;;4.00;3.70;;;33.30;1.00;;;;;;5023700;28;20848;-86
2023/06/25 12:43:55;;;;;;;4.60;4.22;;;33.30;1.00;;;;;;5098383;28;20561;-85
2023/06/25 12:46:30;;;;;;;4.20;3.90;;;33.50;1.00;;;;;;5116035;28;20983;-86
2023/06/25 12:49:17;;;;;;;4.20;3.90;;;32.10;1.00;;;;;;5152624;22;20707;-86
2023/06/25 12:51:48;;;;;;;3.93;3.63;;;32.00;1.00;;;;;;5116850;28;20377;-85
2023/06/25 12:54:13;;;;;;;3.72;3.42;;;33.20;1.00;;;;;;5098459;28;20916;-85
2023/06/25 12:56:48;;;;;;;4.60;4.20;;;32.90;1.00;;;;;;5097195;28;20385;-85
2023/06/25 12:59:26;;;;;;;3.97;3.67;;;33.10;1.00;;;;;;5096623;28;20412;-84
2023/06/25 13:02:00;;;;;;;4.10;3.80;;;32.80;1.00;;;;;;5114483;28;20381;-84
2023/06/25 13:04:26;;;;;;;4.40;4.00;;;32.40;1.00;;;;;;5105688;28;20389;-84
2023/06/25 13:06:54;;;;;;;3.90;3.60;;;32.50;1.00;;;;;;5081986;28;20394;-84
2023/06/25 13:09:20;;;;;;;4.10;3.80;;;32.40;1.00;;;;;;5099741;28;20879;-86
2023/06/25 13:11:50;;;;;;;3.75;3.45;;;32.10;1.00;;;;;;5095286;28;20378;-85
2023/06/25 13:14:18;;;;;;;4.97;3.77;;;32.60;1.00;;;;;;5094647;28;20960;-84
2023/06/25 13:16:47;;;;;;;4.38;3.97;;;31.80;1.00;;;;;;5098249;28;20389;-85
2023/06/25 13:19:20;;;;;;;4.57;4.18;;;32.00;1.00;;;;;;5076338;28;20374;-85
2023/06/25 13:22:02;;;;;;;4.13;3.83;;;31.90;1.00;;;;;;5076442;28;20390;-86
2023/06/25 13:24:38;;;;;;;4.47;4.07;;;32.20;1.00;;;;;;5085225;28;20424;-85
2023/06/25 13:27:04;;;;;;;4.40;4.10;;;32.50;1.00;;;;;;5077867;28;20759;-85
2023/06/25 13:29:29;;;;;;;4.25;3.95;;;32.90;1.00;;;;;;5100221;28;20382;-85